Blues — ZGAQ9 — position and weather

sailwx.info

Track history (hours):
 
Tides and Currents Weather Stations Pressure Air Temp Water Temp Dewpoint Dewpoint Depression Visibility Wind Speed Wind Dir Waves Ship Positions

Blues

Last reported at 2016-Jun-03 17:21 UTC. Time now 2016-Jul-01 17:15 UTC.
Position N 39°34' E 002°38'.
Warning: this ship's position is 27 days out of date.

Type: Sailing vessel. MMSI: 319031700.

Date/timePositionNaut miles runAvg speedWind from/ knotsBaromVisibWave heightAir tempDewpointWater temp
2016-Jun-03 17:21N 39°34' E 002°38'0 0.0
2016-Jun-03 16:33N 39°34' E 002°39'0 0.0
2016-Jun-03 15:31N 39°34' E 002°38'302 9.2
2016-Jun-02 06:33N 38°57' E 009°06'237 6.2
2016-May-31 16:33N 40°30' E 013°49'9 9.0
2016-May-31 15:34N 40°33' E 013°60'9 8.8
2016-May-31 14:30N 40°37' E 014°11'8 8.7
2016-May-31 13:33N 40°40' E 014°21'6 1.8
2016-May-31 10:25N 40°42' E 014°29'0 0.0
2016-May-31 08:19N 40°42' E 014°29'0 0.0
2016-May-30 14:23N 40°42' E 014°29'6 1.5
2016-May-30 10:32N 40°39' E 014°22'8 8.1
2016-May-30 09:32N 40°34' E 014°14'0 0.0
2016-May-30 08:33N 40°34' E 014°14'0 0.0
2016-May-30 07:33N 40°34' E 014°14'0 0.0
2016-May-30 06:33N 40°34' E 014°14'0 0.0
2016-May-30 05:33N 40°34' E 014°14'0 0.0
2016-May-30 04:33N 40°34' E 014°14'0 0.0
2016-May-30 03:33N 40°34' E 014°14'0 0.0
2016-May-30 02:28N 40°34' E 014°14'0 0.0
2016-May-30 01:30N 40°34' E 014°14'0 0.0
2016-May-30 00:24N 40°34' E 014°14'0 0.0
2016-May-29 23:30N 40°34' E 014°14'0 0.0
2016-May-29 22:24N 40°34' E 014°14'0 0.0
2016-May-29 21:18N 40°34' E 014°14'0 0.0
2016-May-29 20:33N 40°34' E 014°14'0 0.0
2016-May-29 19:27N 40°34' E 014°14'0 0.0
2016-May-29 18:18N 40°34' E 014°14'0 0.0
2016-May-29 17:32N 40°34' E 014°14'0 0.0
2016-May-29 16:32N 40°34' E 014°14'0 0.0
2016-May-29 15:32N 40°34' E 014°14'0 0.0
2016-May-29 14:33N 40°34' E 014°14'0 0.0
2016-May-29 13:29N 40°34' E 014°14'0 0.0
2016-May-29 12:33N 40°34' E 014°14'0 0.0
2016-May-29 11:33N 40°34' E 014°14'1 0.5
2016-May-29 10:33N 40°33' E 014°15'0 0.0
2016-May-29 09:33N 40°33' E 014°15'0 0.0
2016-May-29 08:33N 40°33' E 014°15'0 0.0
2016-May-29 07:15N 40°33' E 014°15'0 0.0
2016-May-29 05:27N 40°33' E 014°15'0 0.0
2016-May-29 04:15N 40°33' E 014°15'0 0.0
2016-May-29 03:33N 40°33' E 014°15'0 0.0
2016-May-29 02:33N 40°33' E 014°15'0 0.0
2016-May-29 01:33N 40°33' E 014°15'0 0.0
2016-May-29 00:33N 40°33' E 014°15'0 0.0
2016-May-28 23:33N 40°33' E 014°15'0 0.0
2016-May-28 22:33N 40°33' E 014°15'0 0.0
2016-May-28 21:03N 40°33' E 014°15'0 0.0
2016-May-28 20:27N 40°33' E 014°15'0 0.0
2016-May-28 18:03N 40°33' E 014°15'0 0.0
2016-May-28 17:33N 40°33' E 014°15'0 0.0
2016-May-28 16:33N 40°33' E 014°15'0 0.0
2016-May-28 15:33N 40°33' E 014°15'0 0.0
2016-May-28 14:33N 40°33' E 014°15'0 0.0
2016-May-28 13:34N 40°33' E 014°15'1 0.8
2016-May-28 12:33N 40°34' E 014°15'3 2.7
2016-May-28 11:34N 40°37' E 014°16'1 0.7
2016-May-28 10:33N 40°37' E 014°17'0 0.2
2016-May-28 09:33N 40°37' E 014°17'4 3.5
2016-May-28 08:33N 40°34' E 014°15'0 0.2
2016-May-28 07:31N 40°33' E 014°15'0 0.0
2016-May-28 06:30N 40°33' E 014°15'0 0.0
2016-May-28 05:24N 40°33' E 014°15'0 0.0
2016-May-28 04:30N 40°33' E 014°15'0 0.0
2016-May-28 03:30N 40°33' E 014°15'0 0.0
2016-May-28 02:30N 40°33' E 014°15'0 0.0
2016-May-28 01:30N 40°33' E 014°15'0 0.0
2016-May-28 00:30N 40°33' E 014°15'0 0.0
2016-May-27 23:30N 40°33' E 014°15'0 0.0
2016-May-27 22:30N 40°33' E 014°15'0 0.0
2016-May-27 21:24N 40°33' E 014°15'0 0.0
2016-May-27 20:30N 40°33' E 014°15'0 0.0
2016-May-27 19:30N 40°33' E 014°15'0 0.0
2016-May-27 18:30N 40°33' E 014°15'0 0.0
2016-May-27 17:30N 40°33' E 014°15'0 0.0
2016-May-27 16:30N 40°33' E 014°15'0 0.0
2016-May-27 15:30N 40°33' E 014°15'0 0.0
2016-May-27 14:30N 40°33' E 014°15'0 0.4
2016-May-27 13:34N 40°34' E 014°15'3 2.7
2016-May-27 12:32N 40°36' E 014°16'2 1.9
2016-May-27 11:27N 40°37' E 014°14'2 2.2
2016-May-27 10:23N 40°36' E 014°17'1 1.2
2016-May-27 09:30N 40°35' E 014°16'2 1.9
2016-May-27 08:28N 40°33' E 014°15'0 0.0
2016-May-27 07:28N 40°33' E 014°15'0 0.0
2016-May-27 06:28N 40°33' E 014°15'0 0.0
2016-May-27 05:28N 40°33' E 014°15'0 0.0
2016-May-27 04:28N 40°33' E 014°15'0 0.0
2016-May-27 03:28N 40°33' E 014°15'0 0.0
2016-May-27 02:28N 40°33' E 014°15'0 0.0
2016-May-27 01:28N 40°33' E 014°15'0 0.0
2016-May-27 00:28N 40°33' E 014°15'0 0.0
2016-May-26 23:28N 40°33' E 014°15'0 0.0
2016-May-26 22:28N 40°33' E 014°15'0 0.0
2016-May-26 21:28N 40°33' E 014°15'0 0.0
2016-May-26 20:28N 40°33' E 014°15'0 0.0
2016-May-26 19:28N 40°33' E 014°15'0 0.0
2016-May-26 18:28N 40°33' E 014°15'0 0.0
2016-May-26 17:28N 40°33' E 014°15'0 0.0
2016-May-26 16:28N 40°33' E 014°15'0 0.0
2016-May-26 15:28N 40°33' E 014°15'0 0.0
2016-May-26 14:28N 40°33' E 014°15'0 0.1
2016-May-26 13:33N 40°33' E 014°15'1 1.0
2016-May-26 12:33N 40°32' E 014°15'4 3.8
2016-May-26 11:26N 40°35' E 014°19'2 2.3
2016-May-26 10:33N 40°36' E 014°16'2 1.8
2016-May-26 09:29N 40°35' E 014°18'2 1.6
2016-May-26 08:31N 40°35' E 014°16'1 1.5
2016-May-26 07:32N 40°33' E 014°15'0 0.0
2016-May-26 06:32N 40°33' E 014°15'0 0.0
2016-May-26 05:32N 40°33' E 014°15'0 0.0
2016-May-26 04:31N 40°33' E 014°15'0 0.0
2016-May-26 03:25N 40°33' E 014°15'0 0.0
2016-May-26 02:31N 40°33' E 014°15'0 0.0
2016-May-26 01:31N 40°33' E 014°15'0 0.0
2016-May-26 00:31N 40°33' E 014°15'0 0.0
2016-May-25 23:31N 40°33' E 014°15'0 0.0
2016-May-25 22:25N 40°33' E 014°15'0 0.0
2016-May-25 21:31N 40°33' E 014°15'0 0.0
2016-May-25 20:31N 40°33' E 014°15'0 0.0
2016-May-25 19:31N 40°33' E 014°15'0 0.0
2016-May-25 18:31N 40°33' E 014°15'0 0.0
2016-May-25 17:31N 40°33' E 014°15'0 0.0
2016-May-25 16:31N 40°33' E 014°15'0 0.0
2016-May-25 15:13N 40°33' E 014°15'0 0.2
2016-May-25 14:33N 40°33' E 014°15'0 0.2
2016-May-25 13:34N 40°34' E 014°15'3 2.8
2016-May-25 12:33N 40°34' E 014°19'4 2.1
2016-May-25 10:32N 40°36' E 014°14'1 1.4
2016-May-25 09:28N 40°36' E 014°16'3 2.7
2016-May-25 08:30N 40°33' E 014°15'0 0.0
2016-May-25 07:30N 40°33' E 014°15'0 0.0
2016-May-24 22:28N 40°33' E 014°15'0 0.0
2016-May-24 21:28N 40°33' E 014°15'0 0.0
2016-May-24 20:28N 40°33' E 014°15'0 0.0
2016-May-24 19:28N 40°33' E 014°15'0 0.0
2016-May-24 18:28N 40°33' E 014°15'0 0.0
2016-May-24 17:28N 40°33' E 014°15'  
Track history (hours):
 
Tides and Currents Weather Stations Pressure Air Temp Water Temp Dewpoint Dewpoint Depression Visibility Wind Speed Wind Dir Waves Ship Positions

Blues

Last reported at 2016-Jun-03 17:21 UTC. Time now 2016-Jul-01 17:15 UTC.
Position N 39°34' E 002°38'.
Warning: this ship's position is 27 days out of date.

Type: Sailing vessel. MMSI: 319031700.

Date/timePositionNaut miles runAvg speedWind from/ knotsBaromVisibWave heightAir tempDewpointWater temp
2016-Jun-03 17:21N 39°34' E 002°38'0 0.0
2016-Jun-03 16:33N 39°34' E 002°39'0 0.0
2016-Jun-03 15:31N 39°34' E 002°38'302 9.2
2016-Jun-02 06:33N 38°57' E 009°06'237 6.2
2016-May-31 16:33N 40°30' E 013°49'9 9.0
2016-May-31 15:34N 40°33' E 013°60'9 8.8
2016-May-31 14:30N 40°37' E 014°11'8 8.7
2016-May-31 13:33N 40°40' E 014°21'6 1.8
2016-May-31 10:25N 40°42' E 014°29'0 0.0
2016-May-31 08:19N 40°42' E 014°29'0 0.0
2016-May-30 14:23N 40°42' E 014°29'6 1.5
2016-May-30 10:32N 40°39' E 014°22'8 8.1
2016-May-30 09:32N 40°34' E 014°14'0 0.0
2016-May-30 08:33N 40°34' E 014°14'0 0.0
2016-May-30 07:33N 40°34' E 014°14'0 0.0
2016-May-30 06:33N 40°34' E 014°14'0 0.0
2016-May-30 05:33N 40°34' E 014°14'0 0.0
2016-May-30 04:33N 40°34' E 014°14'0 0.0
2016-May-30 03:33N 40°34' E 014°14'0 0.0
2016-May-30 02:28N 40°34' E 014°14'0 0.0
2016-May-30 01:30N 40°34' E 014°14'0 0.0
2016-May-30 00:24N 40°34' E 014°14'0 0.0
2016-May-29 23:30N 40°34' E 014°14'0 0.0
2016-May-29 22:24N 40°34' E 014°14'0 0.0
2016-May-29 21:18N 40°34' E 014°14'0 0.0
2016-May-29 20:33N 40°34' E 014°14'0 0.0
2016-May-29 19:27N 40°34' E 014°14'0 0.0
2016-May-29 18:18N 40°34' E 014°14'0 0.0
2016-May-29 17:32N 40°34' E 014°14'0 0.0
2016-May-29 16:32N 40°34' E 014°14'0 0.0
2016-May-29 15:32N 40°34' E 014°14'0 0.0
2016-May-29 14:33N 40°34' E 014°14'0 0.0
2016-May-29 13:29N 40°34' E 014°14'0 0.0
2016-May-29 12:33N 40°34' E 014°14'0 0.0
2016-May-29 11:33N 40°34' E 014°14'1 0.5
2016-May-29 10:33N 40°33' E 014°15'0 0.0
2016-May-29 09:33N 40°33' E 014°15'0 0.0
2016-May-29 08:33N 40°33' E 014°15'0 0.0
2016-May-29 07:15N 40°33' E 014°15'0 0.0
2016-May-29 05:27N 40°33' E 014°15'0 0.0
2016-May-29 04:15N 40°33' E 014°15'0 0.0
2016-May-29 03:33N 40°33' E 014°15'0 0.0
2016-May-29 02:33N 40°33' E 014°15'0 0.0
2016-May-29 01:33N 40°33' E 014°15'0 0.0
2016-May-29 00:33N 40°33' E 014°15'0 0.0
2016-May-28 23:33N 40°33' E 014°15'0 0.0
2016-May-28 22:33N 40°33' E 014°15'0 0.0
2016-May-28 21:03N 40°33' E 014°15'0 0.0
2016-May-28 20:27N 40°33' E 014°15'0 0.0
2016-May-28 18:03N 40°33' E 014°15'0 0.0
2016-May-28 17:33N 40°33' E 014°15'0 0.0
2016-May-28 16:33N 40°33' E 014°15'0 0.0
2016-May-28 15:33N 40°33' E 014°15'0 0.0
2016-May-28 14:33N 40°33' E 014°15'0 0.0
2016-May-28 13:34N 40°33' E 014°15'1 0.8
2016-May-28 12:33N 40°34' E 014°15'3 2.7
2016-May-28 11:34N 40°37' E 014°16'1 0.7
2016-May-28 10:33N 40°37' E 014°17'0 0.2
2016-May-28 09:33N 40°37' E 014°17'4 3.5
2016-May-28 08:33N 40°34' E 014°15'0 0.2
2016-May-28 07:31N 40°33' E 014°15'0 0.0
2016-May-28 06:30N 40°33' E 014°15'0 0.0
2016-May-28 05:24N 40°33' E 014°15'0 0.0
2016-May-28 04:30N 40°33' E 014°15'0 0.0
2016-May-28 03:30N 40°33' E 014°15'0 0.0
2016-May-28 02:30N 40°33' E 014°15'0 0.0
2016-May-28 01:30N 40°33' E 014°15'0 0.0
2016-May-28 00:30N 40°33' E 014°15'0 0.0
2016-May-27 23:30N 40°33' E 014°15'0 0.0
2016-May-27 22:30N 40°33' E 014°15'0 0.0
2016-May-27 21:24N 40°33' E 014°15'0 0.0
2016-May-27 20:30N 40°33' E 014°15'0 0.0
2016-May-27 19:30N 40°33' E 014°15'0 0.0
2016-May-27 18:30N 40°33' E 014°15'0 0.0
2016-May-27 17:30N 40°33' E 014°15'0 0.0
2016-May-27 16:30N 40°33' E 014°15'0 0.0
2016-May-27 15:30N 40°33' E 014°15'0 0.0
2016-May-27 14:30N 40°33' E 014°15'0 0.4
2016-May-27 13:34N 40°34' E 014°15'3 2.7
2016-May-27 12:32N 40°36' E 014°16'2 1.9
2016-May-27 11:27N 40°37' E 014°14'2 2.2
2016-May-27 10:23N 40°36' E 014°17'1 1.2
2016-May-27 09:30N 40°35' E 014°16'2 1.9
2016-May-27 08:28N 40°33' E 014°15'0 0.0
2016-May-27 07:28N 40°33' E 014°15'0 0.0
2016-May-27 06:28N 40°33' E 014°15'0 0.0
2016-May-27 05:28N 40°33' E 014°15'0 0.0
2016-May-27 04:28N 40°33' E 014°15'0 0.0
2016-May-27 03:28N 40°33' E 014°15'0 0.0
2016-May-27 02:28N 40°33' E 014°15'0 0.0
2016-May-27 01:28N 40°33' E 014°15'0 0.0
2016-May-27 00:28N 40°33' E 014°15'0 0.0
2016-May-26 23:28N 40°33' E 014°15'0 0.0
2016-May-26 22:28N 40°33' E 014°15'0 0.0
2016-May-26 21:28N 40°33' E 014°15'0 0.0
2016-May-26 20:28N 40°33' E 014°15'0 0.0
2016-May-26 19:28N 40°33' E 014°15'0 0.0
2016-May-26 18:28N 40°33' E 014°15'0 0.0
2016-May-26 17:28N 40°33' E 014°15'0 0.0
2016-May-26 16:28N 40°33' E 014°15'0 0.0
2016-May-26 15:28N 40°33' E 014°15'0 0.0
2016-May-26 14:28N 40°33' E 014°15'0 0.1
2016-May-26 13:33N 40°33' E 014°15'1 1.0
2016-May-26 12:33N 40°32' E 014°15'4 3.8
2016-May-26 11:26N 40°35' E 014°19'2 2.3
2016-May-26 10:33N 40°36' E 014°16'2 1.8
2016-May-26 09:29N 40°35' E 014°18'2 1.6
2016-May-26 08:31N 40°35' E 014°16'1 1.5
2016-May-26 07:32N 40°33' E 014°15'0 0.0
2016-May-26 06:32N 40°33' E 014°15'0 0.0
2016-May-26 05:32N 40°33' E 014°15'0 0.0
2016-May-26 04:31N 40°33' E 014°15'0 0.0
2016-May-26 03:25N 40°33' E 014°15'0 0.0
2016-May-26 02:31N 40°33' E 014°15'0 0.0
2016-May-26 01:31N 40°33' E 014°15'0 0.0
2016-May-26 00:31N 40°33' E 014°15'0 0.0
2016-May-25 23:31N 40°33' E 014°15'0 0.0
2016-May-25 22:25N 40°33' E 014°15'0 0.0
2016-May-25 21:31N 40°33' E 014°15'0 0.0
2016-May-25 20:31N 40°33' E 014°15'0 0.0
2016-May-25 19:31N 40°33' E 014°15'0 0.0
2016-May-25 18:31N 40°33' E 014°15'0 0.0
2016-May-25 17:31N 40°33' E 014°15'0 0.0
2016-May-25 16:31N 40°33' E 014°15'0 0.0
2016-May-25 15:13N 40°33' E 014°15'0 0.2
2016-May-25 14:33N 40°33' E 014°15'0 0.2
2016-May-25 13:34N 40°34' E 014°15'3 2.8
2016-May-25 12:33N 40°34' E 014°19'4 2.1
2016-May-25 10:32N 40°36' E 014°14'1 1.4
2016-May-25 09:28N 40°36' E 014°16'3 2.7
2016-May-25 08:30N 40°33' E 014°15'0 0.0
2016-May-25 07:30N 40°33' E 014°15'0 0.0
2016-May-24 22:28N 40°33' E 014°15'0 0.0
2016-May-24 21:28N 40°33' E 014°15'0 0.0
2016-May-24 20:28N 40°33' E 014°15'0 0.0
2016-May-24 19:28N 40°33' E 014°15'0 0.0
2016-May-24 18:28N 40°33' E 014°15'0 0.0
2016-May-24 17:28N 40°33' E 014°15'  

Dump ship's entire track history